sensor_id;sensor_type;location;lat;lon;timestamp;pressure;altitude;pressure_sealevel;temperature;humidity
38718;BME280;24468;52.128;9.278;2022-09-27T00:01:05;98464.28;;;11.20;100.00
38718;BME280;24468;52.128;9.278;2022-09-27T00:03:31;98463.66;;;11.05;100.00
38718;BME280;24468;52.128;9.278;2022-09-27T00:06:02;98465.25;;;10.96;100.00
38718;BME280;24468;52.128;9.278;2022-09-27T00:08:30;98457.81;;;11.11;100.00
38718;BME280;24468;52.128;9.278;2022-09-27T00:11:02;98463.91;;;11.02;100.00
38718;BME280;24468;52.128;9.278;2022-09-27T00:13:29;98463.31;;;11.21;100.00
38718;BME280;24468;52.128;9.278;2022-09-27T00:16:02;98466.59;;;11.13;100.00
38718;BME280;24468;52.128;9.278;2022-09-27T00:18:31;98456.44;;;11.28;100.00
38718;BME280;24468;52.128;9.278;2022-09-27T00:21:10;98456.06;;;11.10;100.00
38718;BME280;24468;52.128;9.278;2022-09-27T00:23:36;98456.94;;;11.33;100.00
38718;BME280;24468;52.128;9.278;2022-09-27T00:26:03;98448.69;;;11.23;100.00
38718;BME280;24468;52.128;9.278;2022-09-27T00:28:29;98449.53;;;11.35;100.00
38718;BME280;24468;52.128;9.278;2022-09-27T00:30:56;98445.00;;;11.58;100.00
38718;BME280;24468;52.128;9.278;2022-09-27T00:33:22;98453.81;;;11.60;100.00
38718;BME280;24468;52.128;9.278;2022-09-27T00:35:47;98446.56;;;11.72;100.00
38718;BME280;24468;52.128;9.278;2022-09-27T00:38:13;98438.78;;;11.78;100.00
38718;BME280;24468;52.128;9.278;2022-09-27T00:40:39;98434.84;;;11.94;100.00
38718;BME280;24468;52.128;9.278;2022-09-27T00:43:23;98434.00;;;11.93;100.00
38718;BME280;24468;52.128;9.278;2022-09-27T00:46:00;98429.19;;;11.97;100.00
38718;BME280;24468;52.128;9.278;2022-09-27T00:48:30;98433.75;;;11.96;100.00
38718;BME280;24468;52.128;9.278;2022-09-27T00:51:00;98426.69;;;12.05;100.00
38718;BME280;24468;52.128;9.278;2022-09-27T00:53:40;98428.91;;;12.00;100.00
38718;BME280;24468;52.128;9.278;2022-09-27T00:56:19;98426.81;;;12.04;100.00
38718;BME280;24468;52.128;9.278;2022-09-27T00:59:02;98431.44;;;11.69;100.00
38718;BME280;24468;52.128;9.278;2022-09-27T01:01:31;98425.28;;;11.90;100.00
38718;BME280;24468;52.128;9.278;2022-09-27T01:04:13;98429.13;;;11.65;100.00
38718;BME280;24468;52.128;9.278;2022-09-27T01:06:42;98427.16;;;11.67;100.00
38718;BME280;24468;52.128;9.278;2022-09-27T01:09:09;98430.56;;;11.80;100.00
38718;BME280;24468;52.128;9.278;2022-09-27T01:12:16;98425.69;;;11.74;100.00
38718;BME280;24468;52.128;9.278;2022-09-27T01:15:20;98425.00;;;11.82;100.00
38718;BME280;24468;52.128;9.278;2022-09-27T01:20:54;98421.63;;;12.12;100.00
38718;BME280;24468;52.128;9.278;2022-09-27T01:27:19;98427.22;;;12.20;100.00
38718;BME280;24468;52.128;9.278;2022-09-27T01:32:49;98414.56;;;11.99;100.00
38718;BME280;24468;52.128;9.278;2022-09-27T01:41:28;98420.34;;;11.40;100.00
38718;BME280;24468;52.128;9.278;2022-09-27T01:44:11;98420.31;;;11.51;100.00
38718;BME280;24468;52.128;9.278;2022-09-27T01:46:46;98422.41;;;11.48;100.00
38718;BME280;24468;52.128;9.278;2022-09-27T01:49:25;98418.25;;;11.44;100.00
38718;BME280;24468;52.128;9.278;2022-09-27T01:51:59;98415.41;;;11.45;100.00
38718;BME280;24468;52.128;9.278;2022-09-27T01:54:39;98407.84;;;11.39;100.00
38718;BME280;24468;52.128;9.278;2022-09-27T01:57:10;98405.91;;;11.30;100.00
38718;BME280;24468;52.128;9.278;2022-09-27T01:59:57;98408.06;;;11.47;100.00
38718;BME280;24468;52.128;9.278;2022-09-27T02:02:25;98407.09;;;11.37;100.00
38718;BME280;24468;52.128;9.278;2022-09-27T02:05:00;98404.25;;;11.50;100.00
38718;BME280;24468;52.128;9.278;2022-09-27T02:07:50;98402.44;;;11.28;100.00
38718;BME280;24468;52.128;9.278;2022-09-27T02:10:25;98405.25;;;11.38;100.00
38718;BME280;24468;52.128;9.278;2022-09-27T02:19:01;98404.06;;;11.63;100.00
38718;BME280;24468;52.128;9.278;2022-09-27T02:25:25;98406.66;;;11.64;100.00
38718;BME280;24468;52.128;9.278;2022-09-27T02:30:45;98403.66;;;11.78;100.00
38718;BME280;24468;52.128;9.278;2022-09-27T02:33:11;98394.97;;;11.75;100.00
38718;BME280;24468;52.128;9.278;2022-09-27T02:35:36;98409.47;;;11.63;100.00
38718;BME280;24468;52.128;9.278;2022-09-27T02:38:03;98406.50;;;11.77;100.00
38718;BME280;24468;52.128;9.278;2022-09-27T02:40:34;98403.16;;;11.96;100.00
38718;BME280;24468;52.128;9.278;2022-09-27T02:43:03;98408.09;;;11.91;100.00
38718;BME280;24468;52.128;9.278;2022-09-27T02:48:49;98403.47;;;11.59;100.00
38718;BME280;24468;52.128;9.278;2022-09-27T02:57:36;98402.75;;;12.00;100.00
38718;BME280;24468;52.128;9.278;2022-09-27T03:00:12;98409.69;;;11.82;100.00
38718;BME280;24468;52.128;9.278;2022-09-27T03:02:56;98405.56;;;11.67;100.00
38718;BME280;24468;52.128;9.278;2022-09-27T03:05:31;98418.25;;;11.98;100.00
38718;BME280;24468;52.128;9.278;2022-09-27T03:07:57;98408.38;;;12.09;100.00
38718;BME280;24468;52.128;9.278;2022-09-27T03:10:26;98409.22;;;12.09;100.00
38718;BME280;24468;52.128;9.278;2022-09-27T03:12:53;98415.56;;;12.19;100.00
38718;BME280;24468;52.128;9.278;2022-09-27T03:15:19;98418.47;;;12.07;100.00
38718;BME280;24468;52.128;9.278;2022-09-27T03:17:45;98415.56;;;12.19;100.00
38718;BME280;24468;52.128;9.278;2022-09-27T03:20:11;98406.50;;;12.09;100.00
38718;BME280;24468;52.128;9.278;2022-09-27T03:22:37;98420.22;;;11.96;100.00
38718;BME280;24468;52.128;9.278;2022-09-27T03:25:04;98423.53;;;12.00;100.00
38718;BME280;24468;52.128;9.278;2022-09-27T03:27:30;98421.88;;;11.65;100.00
38718;BME280;24468;52.128;9.278;2022-09-27T03:29:56;98421.16;;;11.63;100.00
38718;BME280;24468;52.128;9.278;2022-09-27T03:32:22;98429.66;;;11.47;100.00
38718;BME280;24468;52.128;9.278;2022-09-27T03:34:48;98431.53;;;11.35;100.00
38718;BME280;24468;52.128;9.278;2022-09-27T03:37:13;98425.16;;;11.14;100.00
38718;BME280;24468;52.128;9.278;2022-09-27T03:39:39;98431.06;;;11.19;100.00
38718;BME280;24468;52.128;9.278;2022-09-27T03:42:05;98431.53;;;11.02;100.00
38718;BME280;24468;52.128;9.278;2022-09-27T03:44:30;98425.16;;;11.14;100.00
38718;BME280;24468;52.128;9.278;2022-09-27T03:46:57;98431.16;;;10.95;100.00
38718;BME280;24468;52.128;9.278;2022-09-27T03:49:24;98435.56;;;11.07;100.00
38718;BME280;24468;52.128;9.278;2022-09-27T03:51:49;98430.41;;;11.27;100.00
38718;BME280;24468;52.128;9.278;2022-09-27T03:54:17;98439.16;;;11.08;100.00
38718;BME280;24468;52.128;9.278;2022-09-27T03:56:42;98445.41;;;11.08;100.00
38718;BME280;24468;52.128;9.278;2022-09-27T03:59:10;98435.56;;;10.96;100.00
38718;BME280;24468;52.128;9.278;2022-09-27T04:01:36;98430.56;;;11.14;100.00
38718;BME280;24468;52.128;9.278;2022-09-27T04:04:03;98443.16;;;11.02;100.00
38718;BME280;24468;52.128;9.278;2022-09-27T04:06:29;98438.03;;;10.99;100.00
38718;BME280;24468;52.128;9.278;2022-09-27T04:08:55;98430.66;;;11.12;100.00
38718;BME280;24468;52.128;9.278;2022-09-27T04:11:20;98447.47;;;11.16;100.00
38718;BME280;24468;52.128;9.278;2022-09-27T04:13:48;98440.72;;;11.10;100.00
38718;BME280;24468;52.128;9.278;2022-09-27T04:16:14;98435.22;;;11.23;100.00
38718;BME280;24468;52.128;9.278;2022-09-27T04:18:41;98441.22;;;11.27;100.00
38718;BME280;24468;52.128;9.278;2022-09-27T04:21:07;98437.31;;;11.20;100.00
38718;BME280;24468;52.128;9.278;2022-09-27T04:23:33;98432.88;;;11.19;100.00
38718;BME280;24468;52.128;9.278;2022-09-27T04:26:01;98436.56;;;11.29;100.00
38718;BME280;24468;52.128;9.278;2022-09-27T04:28:27;98441.22;;;11.04;100.00
38718;BME280;24468;52.128;9.278;2022-09-27T04:30:54;98447.00;;;11.11;100.00
38718;BME280;24468;52.128;9.278;2022-09-27T04:33:20;98445.25;;;11.10;100.00
38718;BME280;24468;52.128;9.278;2022-09-27T04:35:45;98439.38;;;11.16;100.00
38718;BME280;24468;52.128;9.278;2022-09-27T04:38:29;98446.00;;;11.23;100.00
38718;BME280;24468;52.128;9.278;2022-09-27T04:40:55;98444.91;;;10.92;100.00
38718;BME280;24468;52.128;9.278;2022-09-27T04:43:20;98450.75;;;10.86;100.00
38718;BME280;24468;52.128;9.278;2022-09-27T04:45:46;98449.69;;;11.00;100.00
38718;BME280;24468;52.128;9.278;2022-09-27T04:48:11;98440.13;;;11.18;100.00
38718;BME280;24468;52.128;9.278;2022-09-27T04:50:37;98457.41;;;11.04;100.00
38718;BME280;24468;52.128;9.278;2022-09-27T04:53:03;98450.31;;;11.15;100.00
38718;BME280;24468;52.128;9.278;2022-09-27T04:55:29;98451.75;;;10.96;100.00
38718;BME280;24468;52.128;9.278;2022-09-27T04:57:54;98452.88;;;11.05;100.00
38718;BME280;24468;52.128;9.278;2022-09-27T05:00:20;98449.22;;;11.06;100.00
38718;BME280;24468;52.128;9.278;2022-09-27T05:02:46;98446.63;;;11.16;100.00
38718;BME280;24468;52.128;9.278;2022-09-27T05:05:15;98447.00;;;11.22;100.00
38718;BME280;24468;52.128;9.278;2022-09-27T05:07:40;98456.06;;;11.21;100.00
38718;BME280;24468;52.128;9.278;2022-09-27T05:10:08;98467.34;;;11.04;100.00
38718;BME280;24468;52.128;9.278;2022-09-27T05:12:33;98467.34;;;10.81;100.00
38718;BME280;24468;52.128;9.278;2022-09-27T05:15:03;98467.84;;;11.09;100.00
38718;BME280;24468;52.128;9.278;2022-09-27T05:17:32;98467.97;;;11.07;100.00
38718;BME280;24468;52.128;9.278;2022-09-27T05:19:58;98465.47;;;10.71;100.00
38718;BME280;24468;52.128;9.278;2022-09-27T05:22:24;98479.47;;;10.76;100.00
38718;BME280;24468;52.128;9.278;2022-09-27T05:24:49;98483.91;;;10.99;100.00
38718;BME280;24468;52.128;9.278;2022-09-27T05:27:15;98492.81;;;10.77;100.00
38718;BME280;24468;52.128;9.278;2022-09-27T05:29:43;98494.03;;;10.73;100.00
38718;BME280;24468;52.128;9.278;2022-09-27T05:32:10;98493.03;;;10.63;100.00
38718;BME280;24468;52.128;9.278;2022-09-27T05:34:37;98498.44;;;10.74;100.00
38718;BME280;24468;52.128;9.278;2022-09-27T05:37:03;98501.16;;;10.74;100.00
38718;BME280;24468;52.128;9.278;2022-09-27T05:39:28;98492.94;;;10.64;100.00
38718;BME280;24468;52.128;9.278;2022-09-27T05:41:54;98511.72;;;10.42;100.00
38718;BME280;24468;52.128;9.278;2022-09-27T05:44:20;98495.97;;;10.60;100.00
38718;BME280;24468;52.128;9.278;2022-09-27T05:46:46;98504.81;;;10.62;100.00
38718;BME280;24468;52.128;9.278;2022-09-27T05:49:11;98509.09;;;10.64;100.00
38718;BME280;24468;52.128;9.278;2022-09-27T05:51:37;98516.88;;;10.45;100.00
38718;BME280;24468;52.128;9.278;2022-09-27T05:54:02;98514.41;;;10.42;100.00
38718;BME280;24468;52.128;9.278;2022-09-27T05:56:28;98513.47;;;10.54;100.00
38718;BME280;24468;52.128;9.278;2022-09-27T05:58:54;98521.53;;;10.43;100.00
38718;BME280;24468;52.128;9.278;2022-09-27T06:01:20;98520.44;;;10.45;100.00
38718;BME280;24468;52.128;9.278;2022-09-27T06:03:45;98520.31;;;10.47;100.00
38718;BME280;24468;52.128;9.278;2022-09-27T06:06:12;98514.25;;;10.67;100.00
38718;BME280;24468;52.128;9.278;2022-09-27T06:08:38;98509.06;;;10.53;100.00
38718;BME280;24468;52.128;9.278;2022-09-27T06:11:09;98512.50;;;10.55;100.00
38718;BME280;24468;52.128;9.278;2022-09-27T06:13:38;98524.13;;;10.56;100.00
38718;BME280;24468;52.128;9.278;2022-09-27T06:16:06;98522.28;;;10.45;100.00
38718;BME280;24468;52.128;9.278;2022-09-27T06:18:32;98529.41;;;10.57;100.00
38718;BME280;24468;52.128;9.278;2022-09-27T06:21:02;98527.53;;;10.46;100.00
38718;BME280;24468;52.128;9.278;2022-09-27T06:23:29;98547.75;;;10.41;100.00
38718;BME280;24468;52.128;9.278;2022-09-27T06:26:03;98528.94;;;10.63;100.00
38718;BME280;24468;52.128;9.278;2022-09-27T06:28:30;98535.28;;;10.51;100.00
38718;BME280;24468;52.128;9.278;2022-09-27T06:30:57;98549.78;;;10.61;100.00
38718;BME280;24468;52.128;9.278;2022-09-27T06:33:25;98548.56;;;10.65;100.00
38718;BME280;24468;52.128;9.278;2022-09-27T06:35:52;98548.13;;;10.83;100.00
38718;BME280;24468;52.128;9.278;2022-09-27T06:38:18;98550.91;;;10.70;100.00
38718;BME280;24468;52.128;9.278;2022-09-27T06:40:46;98540.59;;;10.64;100.00
38718;BME280;24468;52.128;9.278;2022-09-27T06:43:18;98549.69;;;10.74;100.00
38718;BME280;24468;52.128;9.278;2022-09-27T06:45:47;98550.81;;;10.83;100.00
38718;BME280;24468;52.128;9.278;2022-09-27T06:48:14;98553.91;;;10.89;100.00
38718;BME280;24468;52.128;9.278;2022-09-27T06:50:43;98557.38;;;10.56;100.00
38718;BME280;24468;52.128;9.278;2022-09-27T06:53:11;98558.91;;;10.83;100.00
38718;BME280;24468;52.128;9.278;2022-09-27T06:55:37;98562.09;;;10.77;100.00
38718;BME280;24468;52.128;9.278;2022-09-27T06:58:04;98588.97;;;10.54;100.00
38718;BME280;24468;52.128;9.278;2022-09-27T07:00:49;98566.31;;;10.57;100.00
38718;BME280;24468;52.128;9.278;2022-09-27T07:03:16;98559.13;;;10.68;100.00
38718;BME280;24468;52.128;9.278;2022-09-27T07:05:41;98576.34;;;10.55;100.00
38718;BME280;24468;52.128;9.278;2022-09-27T07:08:10;98571.28;;;10.74;100.00
38718;BME280;24468;52.128;9.278;2022-09-27T07:10:39;98584.88;;;10.73;100.00
38718;BME280;24468;52.128;9.278;2022-09-27T07:13:07;98589.75;;;11.03;100.00
38718;BME280;24468;52.128;9.278;2022-09-27T07:15:34;98580.44;;;10.72;100.00
38718;BME280;24468;52.128;9.278;2022-09-27T07:18:04;98583.94;;;10.85;100.00
38718;BME280;24468;52.128;9.278;2022-09-27T07:20:30;98589.75;;;10.92;100.00
38718;BME280;24468;52.128;9.278;2022-09-27T07:22:56;98597.63;;;11.06;100.00
38718;BME280;24468;52.128;9.278;2022-09-27T07:25:22;98606.63;;;11.51;100.00
38718;BME280;24468;52.128;9.278;2022-09-27T07:27:49;98600.19;;;11.19;100.00
38718;BME280;24468;52.128;9.278;2022-09-27T07:30:15;98604.56;;;11.44;100.00
38718;BME280;24468;52.128;9.278;2022-09-27T07:32:42;98607.56;;;11.05;100.00
38718;BME280;24468;52.128;9.278;2022-09-27T07:35:09;98605.06;;;11.60;100.00
38718;BME280;24468;52.128;9.278;2022-09-27T07:37:36;98619.19;;;11.52;100.00
38718;BME280;24468;52.128;9.278;2022-09-27T07:40:05;98623.09;;;11.71;100.00
38718;BME280;24468;52.128;9.278;2022-09-27T07:42:32;98620.88;;;11.65;100.00
38718;BME280;24468;52.128;9.278;2022-09-27T07:44:58;98612.53;;;11.68;100.00
38718;BME280;24468;52.128;9.278;2022-09-27T07:47:25;98620.19;;;11.85;100.00
38718;BME280;24468;52.128;9.278;2022-09-27T07:49:51;98622.81;;;11.40;100.00
38718;BME280;24468;52.128;9.278;2022-09-27T07:52:18;98623.59;;;11.65;100.00
38718;BME280;24468;52.128;9.278;2022-09-27T07:54:45;98631.94;;;11.73;100.00
38718;BME280;24468;52.128;9.278;2022-09-27T07:57:13;98646.03;;;11.43;100.00
38718;BME280;24468;52.128;9.278;2022-09-27T07:59:39;98638.09;;;11.52;100.00
38718;BME280;24468;52.128;9.278;2022-09-27T08:02:13;98642.75;;;11.84;100.00
38718;BME280;24468;52.128;9.278;2022-09-27T08:04:40;98653.06;;;11.56;100.00
38718;BME280;24468;52.128;9.278;2022-09-27T08:07:09;98657.25;;;11.14;100.00
38718;BME280;24468;52.128;9.278;2022-09-27T08:09:35;98656.47;;;11.36;100.00
38718;BME280;24468;52.128;9.278;2022-09-27T08:12:01;98661.16;;;11.68;100.00
38718;BME280;24468;52.128;9.278;2022-09-27T08:14:29;98657.28;;;12.06;100.00
38718;BME280;24468;52.128;9.278;2022-09-27T08:16:54;98662.91;;;11.69;100.00
38718;BME280;24468;52.128;9.278;2022-09-27T08:19:22;98661.06;;;11.80;100.00
38718;BME280;24468;52.128;9.278;2022-09-27T08:21:50;98665.38;;;11.83;100.00
38718;BME280;24468;52.128;9.278;2022-09-27T08:24:16;98661.44;;;11.87;100.00
38718;BME280;24468;52.128;9.278;2022-09-27T08:26:41;98658.53;;;11.90;100.00
38718;BME280;24468;52.128;9.278;2022-09-27T08:29:07;98659.81;;;11.62;100.00
38718;BME280;24468;52.128;9.278;2022-09-27T08:31:33;98671.97;;;11.79;100.00
38718;BME280;24468;52.128;9.278;2022-09-27T08:33:58;98670.41;;;11.76;100.00
38718;BME280;24468;52.128;9.278;2022-09-27T08:36:24;98678.91;;;11.94;100.00
38718;BME280;24468;52.128;9.278;2022-09-27T08:38:52;98689.53;;;11.85;100.00
38718;BME280;24468;52.128;9.278;2022-09-27T08:41:35;98687.00;;;12.06;100.00
38718;BME280;24468;52.128;9.278;2022-09-27T08:47:22;98696.47;;;12.00;100.00
38718;BME280;24468;52.128;9.278;2022-09-27T08:50:21;98676.94;;;12.30;100.00
38718;BME280;24468;52.128;9.278;2022-09-27T08:55:48;98671.69;;;12.61;100.00
38718;BME280;24468;52.128;9.278;2022-09-27T08:58:30;98682.44;;;12.83;100.00
38718;BME280;24468;52.128;9.278;2022-09-27T09:01:00;98671.63;;;12.83;100.00
38718;BME280;24468;52.128;9.278;2022-09-27T09:03:30;98679.63;;;13.17;100.00
38718;BME280;24468;52.128;9.278;2022-09-27T09:11:57;98690.69;;;13.25;100.00
38718;BME280;24468;52.128;9.278;2022-09-27T09:15:06;98706.63;;;12.53;100.00
38718;BME280;24468;52.128;9.278;2022-09-27T09:20:33;98684.88;;;12.98;100.00
38718;BME280;24468;52.128;9.278;2022-09-27T09:32:06;98693.00;;;13.30;100.00
38718;BME280;24468;52.128;9.278;2022-09-27T09:34:46;98701.81;;;13.64;100.00
38718;BME280;24468;52.128;9.278;2022-09-27T09:37:21;98696.06;;;13.78;100.00
38718;BME280;24468;52.128;9.278;2022-09-27T09:39:56;98687.78;;;13.38;100.00
38718;BME280;24468;52.128;9.278;2022-09-27T09:42:34;98688.41;;;13.09;100.00
38718;BME280;24468;52.128;9.278;2022-09-27T09:45:12;98693.50;;;13.03;100.00
38718;BME280;24468;52.128;9.278;2022-09-27T09:48:14;98688.66;;;13.06;100.00
38718;BME280;24468;52.128;9.278;2022-09-27T09:50:43;98670.81;;;13.57;100.00
38718;BME280;24468;52.128;9.278;2022-09-27T09:53:26;98685.94;;;13.60;100.00
38718;BME280;24468;52.128;9.278;2022-09-27T09:56:02;98688.13;;;12.80;100.00
38718;BME280;24468;52.128;9.278;2022-09-27T09:58:45;98680.75;;;12.82;100.00
38718;BME280;24468;52.128;9.278;2022-09-27T10:01:29;98682.16;;;13.30;100.00
38718;BME280;24468;52.128;9.278;2022-09-27T10:03:57;98676.78;;;12.98;100.00
38718;BME280;24468;52.128;9.278;2022-09-27T10:06:25;98676.06;;;13.28;100.00
38718;BME280;24468;52.128;9.278;2022-09-27T10:08:51;98672.47;;;13.69;100.00
38718;BME280;24468;52.128;9.278;2022-09-27T10:11:39;98668.06;;;13.99;100.00
38718;BME280;24468;52.128;9.278;2022-09-27T10:14:14;98668.84;;;14.11;100.00
38718;BME280;24468;52.128;9.278;2022-09-27T10:16:43;98660.88;;;14.19;100.00
38718;BME280;24468;52.128;9.278;2022-09-27T10:19:14;98664.53;;;14.08;100.00
38718;BME280;24468;52.128;9.278;2022-09-27T10:21:42;98677.69;;;14.13;100.00
38718;BME280;24468;52.128;9.278;2022-09-27T10:24:14;98662.19;;;14.24;100.00
38718;BME280;24468;52.128;9.278;2022-09-27T10:26:43;98671.59;;;14.61;100.00
38718;BME280;24468;52.128;9.278;2022-09-27T10:31:47;98674.75;;;14.56;100.00
38718;BME280;24468;52.128;9.278;2022-09-27T10:34:40;98681.28;;;13.92;100.00
38718;BME280;24468;52.128;9.278;2022-09-27T10:39:39;98680.72;;;14.19;100.00
38718;BME280;24468;52.128;9.278;2022-09-27T10:42:31;98680.41;;;13.40;100.00
38718;BME280;24468;52.128;9.278;2022-09-27T10:45:21;98697.16;;;13.02;100.00
38718;BME280;24468;52.128;9.278;2022-09-27T10:47:49;98703.06;;;12.63;100.00
38718;BME280;24468;52.128;9.278;2022-09-27T10:50:19;98691.91;;;12.23;100.00
38718;BME280;24468;52.128;9.278;2022-09-27T10:52:47;98703.63;;;12.12;100.00
38718;BME280;24468;52.128;9.278;2022-09-27T10:55:25;98702.97;;;12.09;100.00
38718;BME280;24468;52.128;9.278;2022-09-27T10:57:53;98705.09;;;12.05;100.00
38718;BME280;24468;52.128;9.278;2022-09-27T11:00:35;98706.56;;;12.20;100.00
38718;BME280;24468;52.128;9.278;2022-09-27T11:03:13;98715.78;;;12.29;100.00
38718;BME280;24468;52.128;9.278;2022-09-27T11:05:42;98700.53;;;12.51;100.00
38718;BME280;24468;52.128;9.278;2022-09-27T11:10:43;98711.31;;;13.38;100.00
38718;BME280;24468;52.128;9.278;2022-09-27T11:13:19;98705.72;;;13.71;100.00
38718;BME280;24468;52.128;9.278;2022-09-27T11:16:18;98720.78;;;13.43;100.00
38718;BME280;24468;52.128;9.278;2022-09-27T11:26:00;98707.31;;;13.74;100.00
38718;BME280;24468;52.128;9.278;2022-09-27T11:31:40;98713.44;;;13.97;100.00
38718;BME280;24468;52.128;9.278;2022-09-27T11:34:42;98707.34;;;13.09;100.00
38718;BME280;24468;52.128;9.278;2022-09-27T11:38:03;98736.16;;;12.22;100.00
38718;BME280;24468;52.128;9.278;2022-09-27T11:46:42;98732.22;;;11.92;100.00
38718;BME280;24468;52.128;9.278;2022-09-27T11:52:22;98720.84;;;11.76;100.00
38718;BME280;24468;52.128;9.278;2022-09-27T11:57:29;98718.03;;;11.77;100.00
38718;BME280;24468;52.128;9.278;2022-09-27T12:00:21;98721.88;;;11.40;100.00
38718;BME280;24468;52.128;9.278;2022-09-27T12:04:15;98720.59;;;11.68;100.00
38718;BME280;24468;52.128;9.278;2022-09-27T12:06:15;98717.28;;;11.75;100.00
38718;BME280;24468;52.128;9.278;2022-09-27T12:09:09;98696.72;;;12.08;100.00
38718;BME280;24468;52.128;9.278;2022-09-27T12:11:48;98708.84;;;12.48;100.00
38718;BME280;24468;52.128;9.278;2022-09-27T12:16:53;98701.59;;;13.35;100.00
38718;BME280;24468;52.128;9.278;2022-09-27T12:19:31;98708.97;;;13.44;100.00
38718;BME280;24468;52.128;9.278;2022-09-27T12:22:04;98707.44;;;13.51;100.00
38718;BME280;24468;52.128;9.278;2022-09-27T12:24:32;98689.00;;;13.13;100.00
38718;BME280;24468;52.128;9.278;2022-09-27T12:27:39;98714.44;;;13.33;100.00
38718;BME280;24468;52.128;9.278;2022-09-27T12:30:11;98728.97;;;13.95;100.00
38718;BME280;24468;52.128;9.278;2022-09-27T12:33:06;98717.38;;;14.14;100.00
38718;BME280;24468;52.128;9.278;2022-09-27T12:35:45;98702.84;;;14.24;100.00
38718;BME280;24468;52.128;9.278;2022-09-27T12:38:34;98716.31;;;14.66;100.00
38718;BME280;24468;52.128;9.278;2022-09-27T12:41:04;98698.75;;;13.78;100.00
38718;BME280;24468;52.128;9.278;2022-09-27T12:43:32;98707.09;;;14.17;100.00
38718;BME280;24468;52.128;9.278;2022-09-27T12:49:29;98696.03;;;14.30;100.00
38718;BME280;24468;52.128;9.278;2022-09-27T12:52:02;98685.97;;;14.52;100.00
38718;BME280;24468;52.128;9.278;2022-09-27T13:03:09;98715.50;;;14.14;100.00
38718;BME280;24468;52.128;9.278;2022-09-27T13:06:09;98710.28;;;13.50;100.00
38718;BME280;24468;52.128;9.278;2022-09-27T13:09:10;98705.84;;;13.49;100.00
38718;BME280;24468;52.128;9.278;2022-09-27T13:12:13;98722.63;;;13.43;100.00
38718;BME280;24468;52.128;9.278;2022-09-27T13:25:48;98740.28;;;12.82;100.00
38718;BME280;24468;52.128;9.278;2022-09-27T13:31:08;98747.72;;;12.35;100.00
38718;BME280;24468;52.128;9.278;2022-09-27T13:33:52;98750.78;;;12.42;100.00
38718;BME280;24468;52.128;9.278;2022-09-27T13:39:02;98743.66;;;12.30;100.00
38718;BME280;24468;52.128;9.278;2022-09-27T13:49:41;98744.03;;;13.02;100.00
38718;BME280;24468;52.128;9.278;2022-09-27T13:55:00;98744.44;;;12.98;100.00
38718;BME280;24468;52.128;9.278;2022-09-27T14:00:37;98730.28;;;13.38;100.00
38718;BME280;24468;52.128;9.278;2022-09-27T14:05:55;98735.22;;;13.21;100.00
38718;BME280;24468;52.128;9.278;2022-09-27T14:08:32;98729.22;;;13.29;100.00
38718;BME280;24468;52.128;9.278;2022-09-27T14:11:02;98728.28;;;13.07;100.00
38718;BME280;24468;52.128;9.278;2022-09-27T14:13:30;98730.94;;;13.19;100.00
38718;BME280;24468;52.128;9.278;2022-09-27T14:15:59;98739.69;;;13.22;100.00
38718;BME280;24468;52.128;9.278;2022-09-27T14:18:27;98736.25;;;12.65;100.00
38718;BME280;24468;52.128;9.278;2022-09-27T14:21:19;98732.38;;;12.90;100.00
38718;BME280;24468;52.128;9.278;2022-09-27T14:23:46;98729.81;;;12.89;100.00
38718;BME280;24468;52.128;9.278;2022-09-27T14:26:23;98740.94;;;12.63;100.00
38718;BME280;24468;52.128;9.278;2022-09-27T14:28:49;98740.09;;;12.52;100.00
38718;BME280;24468;52.128;9.278;2022-09-27T14:31:23;98752.38;;;12.56;100.00
38718;BME280;24468;52.128;9.278;2022-09-27T14:33:57;98775.00;;;12.10;100.00
38718;BME280;24468;52.128;9.278;2022-09-27T14:36:32;98769.94;;;11.94;100.00
38718;BME280;24468;52.128;9.278;2022-09-27T14:39:28;98780.13;;;11.31;100.00
38718;BME280;24468;52.128;9.278;2022-09-27T14:41:58;98806.75;;;10.87;100.00
38718;BME280;24468;52.128;9.278;2022-09-27T14:44:24;98791.25;;;10.29;100.00
38718;BME280;24468;52.128;9.278;2022-09-27T14:47:22;98807.78;;;10.22;100.00
38718;BME280;24468;52.128;9.278;2022-09-27T14:49:55;98816.44;;;10.15;100.00
38718;BME280;24468;52.128;9.278;2022-09-27T14:52:33;98801.56;;;10.09;100.00
38718;BME280;24468;52.128;9.278;2022-09-27T14:55:01;98810.09;;;10.41;100.00
38718;BME280;24468;52.128;9.278;2022-09-27T14:57:36;98808.25;;;10.42;100.00
38718;BME280;24468;52.128;9.278;2022-09-27T15:00:25;98808.97;;;10.70;100.00
38718;BME280;24468;52.128;9.278;2022-09-27T15:02:54;98813.53;;;10.93;100.00
38718;BME280;24468;52.128;9.278;2022-09-27T15:05:30;98808.41;;;11.38;100.00
38718;BME280;24468;52.128;9.278;2022-09-27T15:07:59;98802.84;;;11.64;100.00
38718;BME280;24468;52.128;9.278;2022-09-27T15:10:29;98799.19;;;12.00;100.00
38718;BME280;24468;52.128;9.278;2022-09-27T15:12:57;98798.34;;;12.22;100.00
38718;BME280;24468;52.128;9.278;2022-09-27T15:15:32;98800.47;;;12.41;100.00
38718;BME280;24468;52.128;9.278;2022-09-27T15:17:59;98796.28;;;12.71;100.00
38718;BME280;24468;52.128;9.278;2022-09-27T15:20:28;98796.69;;;13.09;100.00
38718;BME280;24468;52.128;9.278;2022-09-27T15:23:00;98782.75;;;13.37;100.00
38718;BME280;24468;52.128;9.278;2022-09-27T15:25:35;98791.50;;;13.61;100.00
38718;BME280;24468;52.128;9.278;2022-09-27T15:28:03;98777.53;;;13.45;100.00
38718;BME280;24468;52.128;9.278;2022-09-27T15:30:37;98795.91;;;12.86;100.00
38718;BME280;24468;52.128;9.278;2022-09-27T15:33:06;98801.06;;;12.33;100.00
38718;BME280;24468;52.128;9.278;2022-09-27T15:35:53;98799.31;;;12.77;100.00